sensor_id;sensor_type;location;lat;lon;timestamp;P1;durP1;ratioP1;P2;durP2;ratioP2
81648;SDS011;71057;51.436;6.768;2023-10-19T00:01:54;7.57;;;4.55;;
81648;SDS011;71057;51.436;6.768;2023-10-19T00:04:20;6.13;;;4.13;;
81648;SDS011;71057;51.436;6.768;2023-10-19T00:06:47;5.93;;;3.78;;
81648;SDS011;71057;51.436;6.768;2023-10-19T00:09:13;6.65;;;4.43;;
81648;SDS011;71057;51.436;6.768;2023-10-19T00:11:40;6.43;;;4.10;;
81648;SDS011;71057;51.436;6.768;2023-10-19T00:14:06;7.13;;;4.78;;
81648;SDS011;71057;51.436;6.768;2023-10-19T00:16:41;5.28;;;3.85;;
81648;SDS011;71057;51.436;6.768;2023-10-19T00:19:15;8.20;;;4.53;;
81648;SDS011;71057;51.436;6.768;2023-10-19T00:21:44;6.45;;;4.07;;
81648;SDS011;71057;51.436;6.768;2023-10-19T00:24:15;6.68;;;4.70;;
81648;SDS011;71057;51.436;6.768;2023-10-19T00:26:42;7.28;;;4.90;;
81648;SDS011;71057;51.436;6.768;2023-10-19T00:29:09;6.00;;;4.10;;
81648;SDS011;71057;51.436;6.768;2023-10-19T00:34:21;6.03;;;4.18;;
81648;SDS011;71057;51.436;6.768;2023-10-19T00:36:47;6.50;;;4.18;;
81648;SDS011;71057;51.436;6.768;2023-10-19T00:39:13;6.18;;;4.30;;
81648;SDS011;71057;51.436;6.768;2023-10-19T00:41:49;4.80;;;4.15;;
81648;SDS011;71057;51.436;6.768;2023-10-19T00:44:16;6.68;;;4.65;;
81648;SDS011;71057;51.436;6.768;2023-10-19T00:47:01;7.07;;;4.95;;
81648;SDS011;71057;51.436;6.768;2023-10-19T00:49:29;6.07;;;3.83;;
81648;SDS011;71057;51.436;6.768;2023-10-19T00:51:56;5.93;;;4.88;;
81648;SDS011;71057;51.436;6.768;2023-10-19T00:54:34;7.07;;;4.78;;
81648;SDS011;71057;51.436;6.768;2023-10-19T00:57:07;5.43;;;4.05;;
81648;SDS011;71057;51.436;6.768;2023-10-19T00:59:37;5.93;;;5.03;;
81648;SDS011;71057;51.436;6.768;2023-10-19T01:02:14;5.53;;;4.53;;
81648;SDS011;71057;51.436;6.768;2023-10-19T01:04:44;7.13;;;4.75;;
81648;SDS011;71057;51.436;6.768;2023-10-19T01:07:11;6.18;;;4.53;;
81648;SDS011;71057;51.436;6.768;2023-10-19T01:09:40;6.63;;;4.70;;
81648;SDS011;71057;51.436;6.768;2023-10-19T01:12:09;6.03;;;4.40;;
81648;SDS011;71057;51.436;6.768;2023-10-19T01:14:59;7.65;;;5.13;;
81648;SDS011;71057;51.436;6.768;2023-10-19T01:17:32;7.85;;;4.93;;
81648;SDS011;71057;51.436;6.768;2023-10-19T01:20:08;7.82;;;5.28;;
81648;SDS011;71057;51.436;6.768;2023-10-19T01:28:33;7.15;;;4.82;;
81648;SDS011;71057;51.436;6.768;2023-10-19T01:31:06;8.13;;;5.18;;
81648;SDS011;71057;51.436;6.768;2023-10-19T01:33:32;8.73;;;5.20;;
81648;SDS011;71057;51.436;6.768;2023-10-19T01:35:59;6.60;;;4.50;;
81648;SDS011;71057;51.436;6.768;2023-10-19T01:38:39;7.18;;;5.13;;
81648;SDS011;71057;51.436;6.768;2023-10-19T01:41:06;7.43;;;5.00;;
81648;SDS011;71057;51.436;6.768;2023-10-19T01:43:53;6.00;;;5.15;;
81648;SDS011;71057;51.436;6.768;2023-10-19T01:46:19;6.68;;;4.78;;
81648;SDS011;71057;51.436;6.768;2023-10-19T01:48:50;6.88;;;5.07;;
81648;SDS011;71057;51.436;6.768;2023-10-19T01:51:20;8.32;;;5.50;;
81648;SDS011;71057;51.436;6.768;2023-10-19T01:53:48;7.68;;;5.20;;
81648;SDS011;71057;51.436;6.768;2023-10-19T01:56:14;6.90;;;5.15;;
81648;SDS011;71057;51.436;6.768;2023-10-19T01:58:42;6.15;;;5.10;;
81648;SDS011;71057;51.436;6.768;2023-10-19T02:01:09;9.27;;;5.60;;
81648;SDS011;71057;51.436;6.768;2023-10-19T02:03:37;8.20;;;5.80;;
81648;SDS011;71057;51.436;6.768;2023-10-19T02:06:07;7.30;;;5.53;;
81648;SDS011;71057;51.436;6.768;2023-10-19T02:08:49;10.07;;;5.70;;
81648;SDS011;71057;51.436;6.768;2023-10-19T02:11:16;7.38;;;4.80;;
81648;SDS011;71057;51.436;6.768;2023-10-19T02:13:45;6.47;;;5.25;;
81648;SDS011;71057;51.436;6.768;2023-10-19T02:16:12;6.97;;;5.05;;
81648;SDS011;71057;51.436;6.768;2023-10-19T02:18:40;5.60;;;4.47;;
81648;SDS011;71057;51.436;6.768;2023-10-19T02:21:07;7.28;;;4.82;;
81648;SDS011;71057;51.436;6.768;2023-10-19T02:23:33;7.28;;;4.60;;
81648;SDS011;71057;51.436;6.768;2023-10-19T02:25:59;6.80;;;4.60;;
81648;SDS011;71057;51.436;6.768;2023-10-19T02:28:25;5.43;;;4.28;;
81648;SDS011;71057;51.436;6.768;2023-10-19T02:30:56;7.13;;;4.35;;
81648;SDS011;71057;51.436;6.768;2023-10-19T02:33:21;6.85;;;5.00;;
81648;SDS011;71057;51.436;6.768;2023-10-19T02:35:47;5.10;;;3.85;;
81648;SDS011;71057;51.436;6.768;2023-10-19T02:38:13;6.35;;;4.55;;
81648;SDS011;71057;51.436;6.768;2023-10-19T02:40:38;5.57;;;4.03;;
81648;SDS011;71057;51.436;6.768;2023-10-19T02:43:04;6.28;;;4.15;;
81648;SDS011;71057;51.436;6.768;2023-10-19T02:45:29;7.00;;;4.75;;
81648;SDS011;71057;51.436;6.768;2023-10-19T02:47:57;5.43;;;4.00;;
81648;SDS011;71057;51.436;6.768;2023-10-19T02:50:24;7.55;;;4.63;;
81648;SDS011;71057;51.436;6.768;2023-10-19T02:52:51;4.97;;;4.00;;
81648;SDS011;71057;51.436;6.768;2023-10-19T02:55:18;6.47;;;3.80;;
81648;SDS011;71057;51.436;6.768;2023-10-19T02:57:48;5.70;;;3.90;;
81648;SDS011;71057;51.436;6.768;2023-10-19T03:00:15;6.97;;;4.18;;
81648;SDS011;71057;51.436;6.768;2023-10-19T03:02:44;5.63;;;3.42;;
81648;SDS011;71057;51.436;6.768;2023-10-19T03:05:10;5.93;;;3.83;;
81648;SDS011;71057;51.436;6.768;2023-10-19T03:07:42;5.25;;;4.00;;
81648;SDS011;71057;51.436;6.768;2023-10-19T03:10:09;4.97;;;3.03;;
81648;SDS011;71057;51.436;6.768;2023-10-19T03:12:49;5.30;;;3.08;;
81648;SDS011;71057;51.436;6.768;2023-10-19T03:15:15;3.92;;;3.13;;
81648;SDS011;71057;51.436;6.768;2023-10-19T03:17:42;6.00;;;3.72;;
81648;SDS011;71057;51.436;6.768;2023-10-19T03:20:07;5.57;;;3.35;;
81648;SDS011;71057;51.436;6.768;2023-10-19T03:22:36;4.57;;;3.53;;
81648;SDS011;71057;51.436;6.768;2023-10-19T03:25:03;4.65;;;3.58;;
81648;SDS011;71057;51.436;6.768;2023-10-19T03:27:50;5.72;;;3.45;;
81648;SDS011;71057;51.436;6.768;2023-10-19T03:30:16;4.75;;;3.20;;
81648;SDS011;71057;51.436;6.768;2023-10-19T03:32:44;5.10;;;3.25;;
81648;SDS011;71057;51.436;6.768;2023-10-19T03:35:09;7.15;;;3.45;;
81648;SDS011;71057;51.436;6.768;2023-10-19T03:37:40;4.13;;;3.10;;
81648;SDS011;71057;51.436;6.768;2023-10-19T03:40:06;5.28;;;3.63;;
81648;SDS011;71057;51.436;6.768;2023-10-19T03:42:34;4.88;;;3.38;;
81648;SDS011;71057;51.436;6.768;2023-10-19T03:45:06;4.97;;;3.10;;
81648;SDS011;71057;51.436;6.768;2023-10-19T03:47:38;5.47;;;3.70;;
81648;SDS011;71057;51.436;6.768;2023-10-19T03:50:04;6.28;;;3.75;;
81648;SDS011;71057;51.436;6.768;2023-10-19T03:52:39;6.13;;;3.58;;
81648;SDS011;71057;51.436;6.768;2023-10-19T03:55:04;5.50;;;3.35;;
81648;SDS011;71057;51.436;6.768;2023-10-19T03:57:37;6.10;;;3.42;;
81648;SDS011;71057;51.436;6.768;2023-10-19T04:00:15;5.88;;;3.63;;
81648;SDS011;71057;51.436;6.768;2023-10-19T04:02:43;6.15;;;3.40;;
81648;SDS011;71057;51.436;6.768;2023-10-19T04:05:09;4.25;;;3.08;;
81648;SDS011;71057;51.436;6.768;2023-10-19T04:07:39;6.13;;;3.53;;
81648;SDS011;71057;51.436;6.768;2023-10-19T04:10:06;5.75;;;2.97;;
81648;SDS011;71057;51.436;6.768;2023-10-19T04:12:32;6.00;;;3.00;;
81648;SDS011;71057;51.436;6.768;2023-10-19T04:15:02;6.30;;;3.38;;
81648;SDS011;71057;51.436;6.768;2023-10-19T04:17:44;4.97;;;3.20;;
81648;SDS011;71057;51.436;6.768;2023-10-19T04:20:10;5.30;;;3.33;;
81648;SDS011;71057;51.436;6.768;2023-10-19T04:22:43;4.95;;;2.92;;
81648;SDS011;71057;51.436;6.768;2023-10-19T04:25:12;4.20;;;3.00;;
81648;SDS011;71057;51.436;6.768;2023-10-19T04:27:42;5.88;;;2.85;;
81648;SDS011;71057;51.436;6.768;2023-10-19T04:30:08;6.47;;;2.80;;
81648;SDS011;71057;51.436;6.768;2023-10-19T04:32:47;4.90;;;2.70;;
81648;SDS011;71057;51.436;6.768;2023-10-19T04:35:14;4.45;;;2.72;;
81648;SDS011;71057;51.436;6.768;2023-10-19T04:37:46;6.22;;;2.67;;
81648;SDS011;71057;51.436;6.768;2023-10-19T04:40:16;5.55;;;2.72;;
81648;SDS011;71057;51.436;6.768;2023-10-19T04:42:43;5.05;;;2.55;;
81648;SDS011;71057;51.436;6.768;2023-10-19T04:45:08;4.28;;;2.85;;
81648;SDS011;71057;51.436;6.768;2023-10-19T04:47:36;3.58;;;2.72;;
81648;SDS011;71057;51.436;6.768;2023-10-19T04:50:02;4.20;;;2.70;;
81648;SDS011;71057;51.436;6.768;2023-10-19T04:52:28;4.40;;;2.80;;
81648;SDS011;71057;51.436;6.768;2023-10-19T04:54:53;4.03;;;2.72;;
81648;SDS011;71057;51.436;6.768;2023-10-19T04:57:19;5.47;;;2.58;;
81648;SDS011;71057;51.436;6.768;2023-10-19T04:59:45;5.22;;;3.03;;
81648;SDS011;71057;51.436;6.768;2023-10-19T05:02:11;4.93;;;3.13;;
81648;SDS011;71057;51.436;6.768;2023-10-19T05:04:36;5.73;;;2.60;;
81648;SDS011;71057;51.436;6.768;2023-10-19T05:07:02;4.88;;;2.53;;
81648;SDS011;71057;51.436;6.768;2023-10-19T05:09:28;4.70;;;2.78;;
81648;SDS011;71057;51.436;6.768;2023-10-19T05:11:54;5.15;;;2.83;;
81648;SDS011;71057;51.436;6.768;2023-10-19T05:14:20;5.75;;;3.13;;
81648;SDS011;71057;51.436;6.768;2023-10-19T05:16:46;4.93;;;2.92;;
81648;SDS011;71057;51.436;6.768;2023-10-19T05:19:13;5.22;;;3.35;;
81648;SDS011;71057;51.436;6.768;2023-10-19T05:21:38;6.40;;;3.10;;
81648;SDS011;71057;51.436;6.768;2023-10-19T05:24:03;4.87;;;3.03;;
81648;SDS011;71057;51.436;6.768;2023-10-19T05:26:30;3.72;;;2.63;;
81648;SDS011;71057;51.436;6.768;2023-10-19T05:28:58;6.55;;;3.35;;
81648;SDS011;71057;51.436;6.768;2023-10-19T05:31:23;4.53;;;3.22;;
81648;SDS011;71057;51.436;6.768;2023-10-19T05:33:49;5.50;;;3.28;;
81648;SDS011;71057;51.436;6.768;2023-10-19T05:36:14;4.40;;;3.03;;
81648;SDS011;71057;51.436;6.768;2023-10-19T05:38:40;5.22;;;3.25;;
81648;SDS011;71057;51.436;6.768;2023-10-19T05:41:05;5.05;;;2.83;;
81648;SDS011;71057;51.436;6.768;2023-10-19T05:43:32;4.53;;;3.28;;
81648;SDS011;71057;51.436;6.768;2023-10-19T05:45:59;6.70;;;3.50;;
81648;SDS011;71057;51.436;6.768;2023-10-19T05:48:25;5.65;;;2.88;;
81648;SDS011;71057;51.436;6.768;2023-10-19T05:50:50;6.45;;;3.78;;
81648;SDS011;71057;51.436;6.768;2023-10-19T05:53:16;9.07;;;3.53;;
81648;SDS011;71057;51.436;6.768;2023-10-19T05:55:43;5.38;;;3.30;;
81648;SDS011;71057;51.436;6.768;2023-10-19T05:58:09;4.82;;;3.38;;
81648;SDS011;71057;51.436;6.768;2023-10-19T06:00:35;7.20;;;3.80;;
81648;SDS011;71057;51.436;6.768;2023-10-19T06:03:00;5.07;;;3.15;;
81648;SDS011;71057;51.436;6.768;2023-10-19T06:05:26;5.95;;;3.35;;
81648;SDS011;71057;51.436;6.768;2023-10-19T06:07:51;6.10;;;3.65;;
81648;SDS011;71057;51.436;6.768;2023-10-19T06:10:18;8.48;;;3.90;;
81648;SDS011;71057;51.436;6.768;2023-10-19T06:15:11;5.70;;;3.28;;
81648;SDS011;71057;51.436;6.768;2023-10-19T06:17:38;6.05;;;3.53;;
81648;SDS011;71057;51.436;6.768;2023-10-19T06:20:05;6.43;;;4.13;;
81648;SDS011;71057;51.436;6.768;2023-10-19T06:22:44;6.35;;;3.63;;
81648;SDS011;71057;51.436;6.768;2023-10-19T06:25:15;5.85;;;3.70;;
81648;SDS011;71057;51.436;6.768;2023-10-19T06:27:42;6.13;;;3.85;;
81648;SDS011;71057;51.436;6.768;2023-10-19T06:30:08;5.70;;;3.22;;
81648;SDS011;71057;51.436;6.768;2023-10-19T06:32:35;8.75;;;4.03;;
81648;SDS011;71057;51.436;6.768;2023-10-19T06:35:00;6.00;;;3.90;;
81648;SDS011;71057;51.436;6.768;2023-10-19T06:37:26;5.50;;;3.40;;
81648;SDS011;71057;51.436;6.768;2023-10-19T06:39:52;6.73;;;3.40;;
81648;SDS011;71057;51.436;6.768;2023-10-19T06:42:17;6.07;;;3.58;;
81648;SDS011;71057;51.436;6.768;2023-10-19T06:44:43;6.60;;;3.57;;
81648;SDS011;71057;51.436;6.768;2023-10-19T06:47:08;6.05;;;3.53;;
81648;SDS011;71057;51.436;6.768;2023-10-19T06:49:34;5.75;;;3.45;;
81648;SDS011;71057;51.436;6.768;2023-10-19T06:51:59;6.23;;;3.10;;
81648;SDS011;71057;51.436;6.768;2023-10-19T06:54:25;5.43;;;3.10;;
81648;SDS011;71057;51.436;6.768;2023-10-19T06:56:52;4.35;;;3.10;;
81648;SDS011;71057;51.436;6.768;2023-10-19T06:59:18;6.93;;;3.45;;
81648;SDS011;71057;51.436;6.768;2023-10-19T07:01:43;7.40;;;3.55;;
81648;SDS011;71057;51.436;6.768;2023-10-19T07:04:08;5.10;;;3.13;;
81648;SDS011;71057;51.436;6.768;2023-10-19T07:06:34;4.45;;;2.95;;
81648;SDS011;71057;51.436;6.768;2023-10-19T07:09:00;5.30;;;3.28;;
81648;SDS011;71057;51.436;6.768;2023-10-19T07:11:28;5.32;;;3.42;;
81648;SDS011;71057;51.436;6.768;2023-10-19T07:13:53;6.93;;;3.57;;
81648;SDS011;71057;51.436;6.768;2023-10-19T07:16:18;6.50;;;2.83;;
81648;SDS011;71057;51.436;6.768;2023-10-19T07:18:45;5.53;;;3.45;;
81648;SDS011;71057;51.436;6.768;2023-10-19T07:21:10;5.78;;;3.03;;
81648;SDS011;71057;51.436;6.768;2023-10-19T07:23:36;4.80;;;3.55;;
81648;SDS011;71057;51.436;6.768;2023-10-19T07:26:05;5.20;;;3.33;;
81648;SDS011;71057;51.436;6.768;2023-10-19T07:28:32;5.30;;;3.22;;
81648;SDS011;71057;51.436;6.768;2023-10-19T07:30:57;6.18;;;3.53;;
81648;SDS011;71057;51.436;6.768;2023-10-19T07:33:24;5.45;;;3.08;;
81648;SDS011;71057;51.436;6.768;2023-10-19T07:35:51;7.28;;;3.42;;
81648;SDS011;71057;51.436;6.768;2023-10-19T07:38:20;6.88;;;4.15;;
81648;SDS011;71057;51.436;6.768;2023-10-19T07:40:47;5.32;;;3.13;;
81648;SDS011;71057;51.436;6.768;2023-10-19T07:43:12;5.13;;;3.15;;
81648;SDS011;71057;51.436;6.768;2023-10-19T07:45:38;5.10;;;3.27;;
81648;SDS011;71057;51.436;6.768;2023-10-19T07:48:04;5.70;;;3.03;;
81648;SDS011;71057;51.436;6.768;2023-10-19T07:50:35;8.90;;;4.28;;
81648;SDS011;71057;51.436;6.768;2023-10-19T07:53:02;7.47;;;3.80;;
81648;SDS011;71057;51.436;6.768;2023-10-19T07:55:28;4.68;;;3.28;;
81648;SDS011;71057;51.436;6.768;2023-10-19T07:57:56;3.70;;;2.95;;
81648;SDS011;71057;51.436;6.768;2023-10-19T08:00:24;6.00;;;3.58;;
81648;SDS011;71057;51.436;6.768;2023-10-19T08:02:51;8.43;;;3.97;;
81648;SDS011;71057;51.436;6.768;2023-10-19T08:05:19;5.05;;;3.55;;
81648;SDS011;71057;51.436;6.768;2023-10-19T08:07:44;5.20;;;3.47;;
81648;SDS011;71057;51.436;6.768;2023-10-19T08:10:12;6.07;;;3.15;;
81648;SDS011;71057;51.436;6.768;2023-10-19T08:12:39;4.82;;;2.78;;
81648;SDS011;71057;51.436;6.768;2023-10-19T08:15:11;4.85;;;2.72;;
81648;SDS011;71057;51.436;6.768;2023-10-19T08:17:38;3.53;;;2.67;;
81648;SDS011;71057;51.436;6.768;2023-10-19T08:20:08;3.67;;;2.75;;
81648;SDS011;71057;51.436;6.768;2023-10-19T08:22:37;5.78;;;2.90;;
81648;SDS011;71057;51.436;6.768;2023-10-19T08:25:13;5.50;;;3.05;;
81648;SDS011;71057;51.436;6.768;2023-10-19T08:27:40;6.72;;;2.75;;
81648;SDS011;71057;51.436;6.768;2023-10-19T08:30:09;4.50;;;3.13;;
81648;SDS011;71057;51.436;6.768;2023-10-19T08:32:35;5.38;;;3.05;;
81648;SDS011;71057;51.436;6.768;2023-10-19T08:35:01;5.82;;;3.08;;
81648;SDS011;71057;51.436;6.768;2023-10-19T08:37:27;6.53;;;2.65;;
81648;SDS011;71057;51.436;6.768;2023-10-19T08:39:53;5.18;;;3.08;;
81648;SDS011;71057;51.436;6.768;2023-10-19T08:42:19;5.88;;;2.78;;
81648;SDS011;71057;51.436;6.768;2023-10-19T08:44:45;4.72;;;2.42;;
81648;SDS011;71057;51.436;6.768;2023-10-19T08:47:10;6.25;;;2.70;;
81648;SDS011;71057;51.436;6.768;2023-10-19T08:49:37;4.15;;;2.20;;
81648;SDS011;71057;51.436;6.768;2023-10-19T08:52:02;4.93;;;2.45;;
81648;SDS011;71057;51.436;6.768;2023-10-19T08:54:30;4.95;;;2.88;;
81648;SDS011;71057;51.436;6.768;2023-10-19T08:56:55;6.45;;;2.72;;
81648;SDS011;71057;51.436;6.768;2023-10-19T08:59:21;7.75;;;2.88;;
81648;SDS011;71057;51.436;6.768;2023-10-19T09:01:47;6.68;;;3.10;;
81648;SDS011;71057;51.436;6.768;2023-10-19T09:04:12;5.33;;;2.93;;
81648;SDS011;71057;51.436;6.768;2023-10-19T09:06:41;5.55;;;2.42;;
81648;SDS011;71057;51.436;6.768;2023-10-19T09:09:10;7.32;;;3.15;;
81648;SDS011;71057;51.436;6.768;2023-10-19T09:11:42;5.07;;;3.00;;
81648;SDS011;71057;51.436;6.768;2023-10-19T09:14:08;4.55;;;2.10;;
81648;SDS011;71057;51.436;6.768;2023-10-19T09:16:33;8.87;;;3.07;;
81648;SDS011;71057;51.436;6.768;2023-10-19T09:18:59;5.45;;;2.60;;
81648;SDS011;71057;51.436;6.768;2023-10-19T09:21:24;5.45;;;2.50;;
81648;SDS011;71057;51.436;6.768;2023-10-19T09:23:53;5.23;;;2.23;;
81648;SDS011;71057;51.436;6.768;2023-10-19T09:26:20;4.38;;;2.63;;
81648;SDS011;71057;51.436;6.768;2023-10-19T09:28:47;4.75;;;2.17;;
81648;SDS011;71057;51.436;6.768;2023-10-19T09:31:14;5.13;;;2.72;;
81648;SDS011;71057;51.436;6.768;2023-10-19T09:36:08;5.10;;;2.50;;
81648;SDS011;71057;51.436;6.768;2023-10-19T09:38:45;5.25;;;2.60;;
81648;SDS011;71057;51.436;6.768;2023-10-19T09:41:15;5.63;;;1.92;;
81648;SDS011;71057;51.436;6.768;2023-10-19T09:43:45;3.60;;;1.83;;
81648;SDS011;71057;51.436;6.768;2023-10-19T09:46:17;4.75;;;2.10;;
81648;SDS011;71057;51.436;6.768;2023-10-19T09:48:46;5.15;;;2.72;;
81648;SDS011;71057;51.436;6.768;2023-10-19T09:51:13;5.93;;;3.03;;
81648;SDS011;71057;51.436;6.768;2023-10-19T09:53:41;8.90;;;2.88;;
81648;SDS011;71057;51.436;6.768;2023-10-19T09:56:09;6.55;;;2.75;;
81648;SDS011;71057;51.436;6.768;2023-10-19T09:58:44;3.38;;;1.95;;
81648;SDS011;71057;51.436;6.768;2023-10-19T10:01:12;3.63;;;1.30;;
81648;SDS011;71057;51.436;6.768;2023-10-19T10:03:47;4.80;;;1.90;;
81648;SDS011;71057;51.436;6.768;2023-10-19T10:06:59;6.75;;;2.25;;
81648;SDS011;71057;51.436;6.768;2023-10-19T10:09:20;4.95;;;1.35;;
81648;SDS011;71057;51.436;6.768;2023-10-19T10:11:49;5.85;;;1.55;;
81648;SDS011;71057;51.436;6.768;2023-10-19T10:14:24;7.13;;;1.58;;
81648;SDS011;71057;51.436;6.768;2023-10-19T10:17:02;5.60;;;1.50;;
81648;SDS011;71057;51.436;6.768;2023-10-19T10:19:30;4.13;;;1.40;;
81648;SDS011;71057;51.436;6.768;2023-10-19T10:22:08;5.38;;;1.50;;
81648;SDS011;71057;51.436;6.768;2023-10-19T10:24:42;4.57;;;1.20;;
81648;SDS011;71057;51.436;6.768;2023-10-19T10:27:09;4.68;;;1.50;;
81648;SDS011;71057;51.436;6.768;2023-10-19T10:29:35;5.82;;;1.20;;
81648;SDS011;71057;51.436;6.768;2023-10-19T10:32:01;5.55;;;1.40;;
81648;SDS011;71057;51.436;6.768;2023-10-19T10:37:04;5.90;;;1.52;;
81648;SDS011;71057;51.436;6.768;2023-10-19T10:39:34;4.65;;;1.00;;
81648;SDS011;71057;51.436;6.768;2023-10-19T10:42:07;6.45;;;1.67;;
81648;SDS011;71057;51.436;6.768;2023-10-19T10:44:38;4.03;;;1.40;;
81648;SDS011;71057;51.436;6.768;2023-10-19T10:47:05;4.03;;;1.40;;
81648;SDS011;71057;51.436;6.768;2023-10-19T10:49:55;4.90;;;1.38;;
81648;SDS011;71057;51.436;6.768;2023-10-19T10:55:13;4.50;;;1.58;;
81648;SDS011;71057;51.436;6.768;2023-10-19T10:57:40;5.35;;;1.35;;
81648;SDS011;71057;51.436;6.768;2023-10-19T11:00:07;4.50;;;1.30;;
81648;SDS011;71057;51.436;6.768;2023-10-19T11:02:45;4.75;;;1.30;;
81648;SDS011;71057;51.436;6.768;2023-10-19T11:05:13;3.53;;;1.40;;
81648;SDS011;71057;51.436;6.768;2023-10-19T11:07:40;5.47;;;1.38;;
81648;SDS011;71057;51.436;6.768;2023-10-19T11:10:07;7.40;;;1.85;;
81648;SDS011;71057;51.436;6.768;2023-10-19T11:12:35;4.70;;;1.65;;
81648;SDS011;71057;51.436;6.768;2023-10-19T11:15:00;4.55;;;1.58;;
81648;SDS011;71057;51.436;6.768;2023-10-19T11:17:30;6.50;;;2.25;;
81648;SDS011;71057;51.436;6.768;2023-10-19T11:19:59;4.50;;;1.38;;
81648;SDS011;71057;51.436;6.768;2023-10-19T11:22:25;6.03;;;1.88;;
81648;SDS011;71057;51.436;6.768;2023-10-19T11:24:52;5.20;;;1.67;;
81648;SDS011;71057;51.436;6.768;2023-10-19T11:27:27;5.57;;;1.55;;
81648;SDS011;71057;51.436;6.768;2023-10-19T11:30:02;3.85;;;1.40;;
81648;SDS011;71057;51.436;6.768;2023-10-19T11:32:38;6.35;;;1.52;;
81648;SDS011;71057;51.436;6.768;2023-10-19T11:35:05;4.32;;;1.50;;
81648;SDS011;71057;51.436;6.768;2023-10-19T11:37:53;6.80;;;1.90;;
81648;SDS011;71057;51.436;6.768;2023-10-19T11:42:46;5.35;;;1.92;;
81648;SDS011;71057;51.436;6.768;2023-10-19T11:45:12;5.88;;;1.35;;
81648;SDS011;71057;51.436;6.768;2023-10-19T11:47:38;5.30;;;1.60;;
81648;SDS011;71057;51.436;6.768;2023-10-19T11:50:03;4.70;;;1.90;;
81648;SDS011;71057;51.436;6.768;2023-10-19T11:52:30;8.77;;;2.00;;
81648;SDS011;71057;51.436;6.768;2023-10-19T11:54:55;4.68;;;1.30;;
81648;SDS011;71057;51.436;6.768;2023-10-19T11:57:21;4.95;;;1.60;;
81648;SDS011;71057;51.436;6.768;2023-10-19T11:59:46;3.80;;;1.30;;
81648;SDS011;71057;51.436;6.768;2023-10-19T12:02:17;6.93;;;1.50;;
81648;SDS011;71057;51.436;6.768;2023-10-19T12:04:45;5.10;;;1.65;;
81648;SDS011;71057;51.436;6.768;2023-10-19T12:07:11;5.32;;;1.58;;
81648;SDS011;71057;51.436;6.768;2023-10-19T12:09:36;5.57;;;1.50;;
81648;SDS011;71057;51.436;6.768;2023-10-19T12:12:06;5.90;;;1.33;;
81648;SDS011;71057;51.436;6.768;2023-10-19T12:14:32;5.68;;;1.35;;
81648;SDS011;71057;51.436;6.768;2023-10-19T12:19:25;6.97;;;1.77;;
81648;SDS011;71057;51.436;6.768;2023-10-19T12:21:53;4.90;;;1.60;;
81648;SDS011;71057;51.436;6.768;2023-10-19T12:24:18;6.97;;;1.70;;
81648;SDS011;71057;51.436;6.768;2023-10-19T12:26:45;3.90;;;1.50;;
81648;SDS011;71057;51.436;6.768;2023-10-19T12:29:11;3.92;;;1.30;;
81648;SDS011;71057;51.436;6.768;2023-10-19T12:31:36;5.70;;;1.30;;
81648;SDS011;71057;51.436;6.768;2023-10-19T12:34:04;4.63;;;1.75;;
81648;SDS011;71057;51.436;6.768;2023-10-19T12:36:31;6.00;;;1.50;;
81648;SDS011;71057;51.436;6.768;2023-10-19T12:38:57;6.35;;;2.05;;
81648;SDS011;71057;51.436;6.768;2023-10-19T12:41:22;6.95;;;1.52;;
81648;SDS011;71057;51.436;6.768;2023-10-19T12:43:53;4.72;;;1.42;;
81648;SDS011;71057;51.436;6.768;2023-10-19T12:46:32;5.90;;;1.58;;
81648;SDS011;71057;51.436;6.768;2023-10-19T12:49:01;7.35;;;1.58;;
81648;SDS011;71057;51.436;6.768;2023-10-19T12:51:29;4.28;;;1.10;;
81648;SDS011;71057;51.436;6.768;2023-10-19T12:53:55;4.28;;;1.17;;
81648;SDS011;71057;51.436;6.768;2023-10-19T12:56:21;6.38;;;1.67;;
81648;SDS011;71057;51.436;6.768;2023-10-19T12:58:49;5.85;;;1.63;;
81648;SDS011;71057;51.436;6.768;2023-10-19T13:01:15;5.88;;;1.55;;
81648;SDS011;71057;51.436;6.768;2023-10-19T13:03:48;5.35;;;1.60;;
81648;SDS011;71057;51.436;6.768;2023-10-19T13:06:16;5.20;;;1.58;;
81648;SDS011;71057;51.436;6.768;2023-10-19T13:08:42;4.85;;;1.70;;
81648;SDS011;71057;51.436;6.768;2023-10-19T13:11:08;4.97;;;1.67;;
81648;SDS011;71057;51.436;6.768;2023-10-19T13:13:35;3.25;;;1.42;;
81648;SDS011;71057;51.436;6.768;2023-10-19T13:16:01;6.13;;;1.40;;
81648;SDS011;71057;51.436;6.768;2023-10-19T13:18:31;6.22;;;1.42;;
81648;SDS011;71057;51.436;6.768;2023-10-19T13:20:59;4.53;;;1.27;;
81648;SDS011;71057;51.436;6.768;2023-10-19T13:23:34;5.70;;;1.73;;
81648;SDS011;71057;51.436;6.768;2023-10-19T13:26:00;3.78;;;1.50;;
81648;SDS011;71057;51.436;6.768;2023-10-19T13:28:32;7.47;;;2.03;;
81648;SDS011;71057;51.436;6.768;2023-10-19T13:30:57;6.20;;;2.47;;
81648;SDS011;71057;51.436;6.768;2023-10-19T13:33:23;9.82;;;2.83;;
81648;SDS011;71057;51.436;6.768;2023-10-19T13:35:49;7.07;;;2.65;;
81648;SDS011;71057;51.436;6.768;2023-10-19T13:38:17;10.10;;;2.88;;
81648;SDS011;71057;51.436;6.768;2023-10-19T13:40:44;5.93;;;2.00;;
81648;SDS011;71057;51.436;6.768;2023-10-19T13:43:11;5.55;;;2.00;;
81648;SDS011;71057;51.436;6.768;2023-10-19T13:45:41;6.28;;;1.77;;
81648;SDS011;71057;51.436;6.768;2023-10-19T13:48:08;6.00;;;1.58;;
81648;SDS011;71057;51.436;6.768;2023-10-19T13:50:40;5.32;;;1.48;;
81648;SDS011;71057;51.436;6.768;2023-10-19T13:53:08;5.70;;;1.60;;
81648;SDS011;71057;51.436;6.768;2023-10-19T13:55:34;3.72;;;1.33;;
81648;SDS011;71057;51.436;6.768;2023-10-19T13:58:01;6.25;;;1.95;;
81648;SDS011;71057;51.436;6.768;2023-10-19T14:00:26;4.63;;;1.55;;
81648;SDS011;71057;51.436;6.768;2023-10-19T14:03:04;4.65;;;1.55;;
81648;SDS011;71057;51.436;6.768;2023-10-19T14:05:30;4.18;;;1.55;;
81648;SDS011;71057;51.436;6.768;2023-10-19T14:08:01;4.63;;;1.88;;
81648;SDS011;71057;51.436;6.768;2023-10-19T14:10:28;5.18;;;1.98;;
81648;SDS011;71057;51.436;6.768;2023-10-19T14:12:55;5.85;;;1.88;;
81648;SDS011;71057;51.436;6.768;2023-10-19T14:15:21;5.13;;;1.58;;
81648;SDS011;71057;51.436;6.768;2023-10-19T14:17:47;6.20;;;1.97;;
81648;SDS011;71057;51.436;6.768;2023-10-19T14:20:13;4.72;;;2.00;;
81648;SDS011;71057;51.436;6.768;2023-10-19T14:22:40;4.70;;;1.75;;
81648;SDS011;71057;51.436;6.768;2023-10-19T14:25:11;7.03;;;2.00;;
81648;SDS011;71057;51.436;6.768;2023-10-19T14:27:41;5.30;;;2.17;;
81648;SDS011;71057;51.436;6.768;2023-10-19T14:30:08;4.35;;;1.50;;
81648;SDS011;71057;51.436;6.768;2023-10-19T14:32:38;3.58;;;1.70;;
81648;SDS011;71057;51.436;6.768;2023-10-19T14:35:08;4.93;;;1.95;;
81648;SDS011;71057;51.436;6.768;2023-10-19T14:37:36;4.95;;;1.70;;
81648;SDS011;71057;51.436;6.768;2023-10-19T14:40:04;3.85;;;1.90;;
81648;SDS011;71057;51.436;6.768;2023-10-19T14:42:36;5.38;;;1.65;;
81648;SDS011;71057;51.436;6.768;2023-10-19T14:45:04;4.72;;;1.73;;
81648;SDS011;71057;51.436;6.768;2023-10-19T14:47:34;4.82;;;1.45;;
81648;SDS011;71057;51.436;6.768;2023-10-19T14:50:00;4.03;;;1.83;;
81648;SDS011;71057;51.436;6.768;2023-10-19T14:52:25;4.57;;;1.83;;
81648;SDS011;71057;51.436;6.768;2023-10-19T14:54:50;5.00;;;1.77;;
81648;SDS011;71057;51.436;6.768;2023-10-19T14:57:16;5.32;;;2.08;;
81648;SDS011;71057;51.436;6.768;2023-10-19T14:59:41;5.28;;;1.83;;
81648;SDS011;71057;51.436;6.768;2023-10-19T15:02:06;6.83;;;1.80;;
81648;SDS011;71057;51.436;6.768;2023-10-19T15:04:37;4.20;;;1.58;;
81648;SDS011;71057;51.436;6.768;2023-10-19T15:07:03;6.80;;;2.20;;
81648;SDS011;71057;51.436;6.768;2023-10-19T15:09:29;4.70;;;1.55;;
81648;SDS011;71057;51.436;6.768;2023-10-19T15:11:54;8.80;;;2.63;;
81648;SDS011;71057;51.436;6.768;2023-10-19T15:14:20;5.97;;;2.20;;
81648;SDS011;71057;51.436;6.768;2023-10-19T15:16:45;4.20;;;2.08;;
81648;SDS011;71057;51.436;6.768;2023-10-19T15:19:11;5.63;;;2.10;;